Terminal Aerodrome Forecast
Issued by NWS

Home | Current Version | Previous Version | Text Only | Print | Product List | Glossary Off
Versions: 1 2 3 4 5 6 7 8 9 10 11 12 13 14 15 16 17 18 19 20 21 22 23 24 25 26 27 28 29 30 31 32 33 34 35 36

000
FTUS43 KPAH 081106 AAA
TAFOWB
TAF AMD
KOWB 081106Z 0811/0906 32010KT P6SM SCT025 BKN090
      TEMPO 0811/0813 BKN025
     FM081500 30011G18KT P6SM SKC
     FM090000 31007KT P6SM SCT250=

USA.gov is the U.S. government's official web portal to all federal, state and local government web resources and services.